createdAt,value
2023-12-05T00:01:53.600Z,0.18
2023-12-05T00:04:20.202Z,0.24
2023-12-05T00:06:46.880Z,0.22
2023-12-05T00:09:13.444Z,0.18
2023-12-05T00:11:41.715Z,0.20
2023-12-05T00:14:08.244Z,0.22
2023-12-05T00:16:34.657Z,0.24
2023-12-05T00:19:01.035Z,0.27
2023-12-05T00:21:27.668Z,0.22
2023-12-05T00:23:54.111Z,0.24
2023-12-05T00:26:20.549Z,0.23
2023-12-05T00:28:46.839Z,0.24
2023-12-05T00:31:13.238Z,0.29
2023-12-05T00:33:39.668Z,0.27
2023-12-05T00:36:06.380Z,0.22
2023-12-05T00:38:32.868Z,0.21
2023-12-05T00:41:01.846Z,0.21
2023-12-05T00:43:28.322Z,0.24
2023-12-05T00:45:56.631Z,0.21
2023-12-05T00:48:23.698Z,0.18
2023-12-05T00:50:51.099Z,0.20
2023-12-05T00:53:17.672Z,0.22
2023-12-05T00:55:44.158Z,0.24
2023-12-05T00:58:10.596Z,0.26
2023-12-05T01:00:37.007Z,0.24
2023-12-05T01:03:03.551Z,0.24
2023-12-05T01:05:30.377Z,0.21
2023-12-05T01:07:57.008Z,0.27
2023-12-05T01:10:23.733Z,0.27
2023-12-05T01:12:50.218Z,0.23
2023-12-05T01:15:17.138Z,0.22
2023-12-05T01:17:43.661Z,0.21
2023-12-05T01:20:12.724Z,0.19
2023-12-05T01:22:40.027Z,0.20
2023-12-05T01:25:08.660Z,0.20
2023-12-05T01:27:35.351Z,0.18
2023-12-05T01:30:02.173Z,0.26
2023-12-05T01:32:28.660Z,0.24
2023-12-05T01:34:55.008Z,0.23
2023-12-05T01:37:21.635Z,0.22
2023-12-05T01:39:48.102Z,0.24
2023-12-05T01:42:14.570Z,0.18
2023-12-05T01:44:40.970Z,0.22
2023-12-05T01:47:07.337Z,0.23
2023-12-05T01:49:37.034Z,0.18
2023-12-05T01:52:04.292Z,0.20
2023-12-05T01:54:32.703Z,0.22
2023-12-05T01:57:00.806Z,0.20
2023-12-05T01:59:27.792Z,0.20
2023-12-05T02:01:55.453Z,0.21
2023-12-05T02:04:22.445Z,0.28
2023-12-05T02:06:50.785Z,0.25
2023-12-05T02:09:17.957Z,0.27
2023-12-05T02:11:44.951Z,0.29
2023-12-05T02:14:13.067Z,0.26
2023-12-05T02:16:49.751Z,0.23
2023-12-05T02:19:40.923Z,0.23
2023-12-05T02:22:27.824Z,0.25
2023-12-05T02:25:10.525Z,0.29
2023-12-05T02:27:43.623Z,0.26
2023-12-05T02:30:11.230Z,0.21
2023-12-05T02:32:37.830Z,0.24
2023-12-05T02:35:06.535Z,0.24
2023-12-05T02:37:49.017Z,0.28
2023-12-05T02:40:30.092Z,0.26
2023-12-05T02:42:58.160Z,0.24
2023-12-05T02:45:29.756Z,0.23
2023-12-05T02:47:57.423Z,0.23
2023-12-05T02:50:24.384Z,0.30
2023-12-05T02:52:50.954Z,0.24
2023-12-05T02:55:17.456Z,0.26
2023-12-05T02:57:44.160Z,0.28
2023-12-05T03:00:11.313Z,0.24
2023-12-05T03:02:37.694Z,0.26
2023-12-05T03:05:04.370Z,0.35
2023-12-05T03:07:30.906Z,0.28
2023-12-05T03:09:57.360Z,0.26
2023-12-05T03:12:23.983Z,0.28
2023-12-05T03:14:50.388Z,0.25
2023-12-05T03:17:16.826Z,0.24
2023-12-05T03:19:43.356Z,0.24
2023-12-05T03:22:09.841Z,0.27
2023-12-05T03:24:36.473Z,0.29
2023-12-05T03:27:03.607Z,0.26
2023-12-05T03:29:30.067Z,0.25
2023-12-05T03:31:56.521Z,0.27
2023-12-05T03:34:23.049Z,0.23
2023-12-05T03:36:49.526Z,0.26
2023-12-05T03:39:16.098Z,0.26
2023-12-05T03:41:44.470Z,0.27
2023-12-05T03:44:10.941Z,0.28
2023-12-05T03:46:37.269Z,0.30
2023-12-05T03:49:03.869Z,0.28
2023-12-05T03:51:31.263Z,0.24
2023-12-05T03:53:57.798Z,0.26
2023-12-05T03:56:24.162Z,0.24
2023-12-05T03:58:52.492Z,0.24
2023-12-05T04:01:18.923Z,0.25
2023-12-05T04:03:45.403Z,0.27
2023-12-05T04:06:24.011Z,0.28
2023-12-05T04:08:51.601Z,0.21
2023-12-05T04:11:18.524Z,0.27
2023-12-05T04:13:44.954Z,0.25
2023-12-05T04:16:11.421Z,0.24
2023-12-05T04:18:37.880Z,0.26
2023-12-05T04:21:04.839Z,0.27
2023-12-05T04:23:31.294Z,0.25
2023-12-05T04:25:57.772Z,0.24
2023-12-05T04:28:24.126Z,0.30
2023-12-05T04:30:50.522Z,0.29
2023-12-05T04:33:17.113Z,0.23
2023-12-05T04:35:43.648Z,0.23
2023-12-05T04:38:10.084Z,0.22
2023-12-05T04:40:36.498Z,0.24
2023-12-05T04:43:02.846Z,0.27
2023-12-05T04:45:30.853Z,0.30
2023-12-05T04:47:57.420Z,0.28
2023-12-05T04:50:23.956Z,0.28
2023-12-05T04:52:50.308Z,0.26
2023-12-05T04:55:16.780Z,0.31
2023-12-05T04:57:43.377Z,0.29
2023-12-05T05:00:12.439Z,0.33
2023-12-05T05:02:39.236Z,0.28
2023-12-05T05:05:06.148Z,0.27
2023-12-05T05:07:34.352Z,0.25
2023-12-05T05:10:00.819Z,0.31
2023-12-05T05:12:28.377Z,0.28
2023-12-05T05:14:54.814Z,0.30
2023-12-05T05:17:21.982Z,0.31
2023-12-05T05:19:48.775Z,0.30
2023-12-05T05:22:15.485Z,0.33
2023-12-05T05:24:42.056Z,0.36
2023-12-05T05:27:08.818Z,0.35
2023-12-05T05:29:35.252Z,0.35
2023-12-05T05:32:01.622Z,0.34
2023-12-05T05:34:28.068Z,0.37
2023-12-05T05:36:54.543Z,0.39
2023-12-05T05:39:21.738Z,0.33
2023-12-05T05:41:48.216Z,0.36
2023-12-05T05:44:14.638Z,0.27
2023-12-05T05:46:40.981Z,0.29
2023-12-05T05:49:07.690Z,0.28
2023-12-05T05:51:34.306Z,0.27
2023-12-05T05:54:00.819Z,0.29
2023-12-05T05:56:27.370Z,0.29
2023-12-05T05:58:53.801Z,0.29
2023-12-05T06:01:20.307Z,0.30
2023-12-05T06:03:46.830Z,0.32
2023-12-05T06:06:13.397Z,0.34
2023-12-05T06:08:39.910Z,0.34
2023-12-05T06:11:06.733Z,0.34
2023-12-05T06:13:33.175Z,0.33
2023-12-05T06:15:59.801Z,0.30
2023-12-05T06:18:26.298Z,0.31
2023-12-05T06:20:53.823Z,0.37
2023-12-05T06:23:20.254Z,0.37
2023-12-05T06:25:46.981Z,0.34
2023-12-05T06:28:13.509Z,0.36
2023-12-05T06:30:39.955Z,0.35
2023-12-05T06:33:06.471Z,0.37
2023-12-05T06:35:33.417Z,0.38
2023-12-05T06:37:59.725Z,0.38
2023-12-05T06:40:26.157Z,0.40
2023-12-05T06:42:52.609Z,0.39
2023-12-05T06:45:19.007Z,0.37
2023-12-05T06:47:46.131Z,0.36
2023-12-05T06:50:13.123Z,0.36
2023-12-05T06:52:41.332Z,0.35
2023-12-05T06:55:09.269Z,0.34
2023-12-05T06:57:35.817Z,0.35
2023-12-05T07:00:03.768Z,0.33
2023-12-05T07:02:30.715Z,0.37
2023-12-05T07:04:58.941Z,0.39
2023-12-05T07:07:26.122Z,0.37
2023-12-05T07:09:52.616Z,0.33
2023-12-05T07:12:20.235Z,0.33
2023-12-05T07:14:46.706Z,0.36
2023-12-05T07:17:13.226Z,0.31
2023-12-05T07:19:39.940Z,0.33
2023-12-05T07:22:06.470Z,0.34
2023-12-05T07:24:32.892Z,0.34
2023-12-05T07:26:59.363Z,0.33
2023-12-05T07:29:26.120Z,0.35
2023-12-05T07:31:52.616Z,0.32
2023-12-05T07:34:19.006Z,0.30
2023-12-05T07:36:45.405Z,0.31
2023-12-05T07:39:13.801Z,0.33
2023-12-05T07:41:41.356Z,0.27
2023-12-05T07:44:08.243Z,0.28
2023-12-05T07:46:34.964Z,0.30
2023-12-05T07:49:03.689Z,0.36
2023-12-05T07:51:30.612Z,0.34
2023-12-05T07:53:57.093Z,0.33
2023-12-05T07:56:23.595Z,0.31
2023-12-05T07:58:50.021Z,0.27
2023-12-05T08:01:16.506Z,0.29
2023-12-05T08:03:43.036Z,0.30
2023-12-05T08:06:10.033Z,0.34
2023-12-05T08:08:36.669Z,0.29
2023-12-05T08:11:03.825Z,0.34
2023-12-05T08:13:30.547Z,0.39
2023-12-05T08:15:57.143Z,0.38
2023-12-05T08:18:23.817Z,0.35
2023-12-05T08:20:51.010Z,0.34
2023-12-05T08:23:17.518Z,0.33
2023-12-05T08:25:43.927Z,0.36
2023-12-05T08:28:10.335Z,0.36
2023-12-05T08:30:36.964Z,0.40
2023-12-05T08:33:03.650Z,0.32
2023-12-05T08:35:30.110Z,0.40
2023-12-05T08:37:56.441Z,0.43
2023-12-05T08:40:23.025Z,0.45
2023-12-05T08:42:49.837Z,0.42
2023-12-05T08:45:16.427Z,0.40
2023-12-05T08:47:42.880Z,0.41
2023-12-05T08:50:09.431Z,0.45
2023-12-05T08:52:35.898Z,0.48
2023-12-05T08:55:02.606Z,0.48
2023-12-05T08:57:29.063Z,0.48
2023-12-05T08:59:55.501Z,0.47
2023-12-05T09:02:21.834Z,0.44
2023-12-05T09:04:48.557Z,0.48
2023-12-05T09:07:15.944Z,0.52
2023-12-05T09:09:42.671Z,0.53
2023-12-05T09:12:09.633Z,0.47
2023-12-05T09:14:36.492Z,0.46
2023-12-05T09:17:04.381Z,0.46
2023-12-05T09:19:31.542Z,0.48
2023-12-05T09:21:58.070Z,0.50
2023-12-05T09:24:25.816Z,0.53
2023-12-05T09:26:52.287Z,0.54
2023-12-05T09:29:18.912Z,0.46
2023-12-05T09:31:45.682Z,0.52
2023-12-05T09:34:12.105Z,0.56
2023-12-05T09:36:38.779Z,0.62
2023-12-05T09:39:06.565Z,0.65
2023-12-05T09:41:41.944Z,0.67
2023-12-05T09:44:09.713Z,0.69
2023-12-05T09:46:44.754Z,0.74
2023-12-05T09:49:18.360Z,0.78
2023-12-05T09:51:46.200Z,0.80
2023-12-05T09:54:15.021Z,0.78
2023-12-05T09:56:41.884Z,0.79
2023-12-05T09:59:11.299Z,0.80
2023-12-05T10:01:40.658Z,0.80
2023-12-05T10:04:12.280Z,0.81
2023-12-05T10:06:40.660Z,0.79
2023-12-05T10:09:10.768Z,0.83
2023-12-05T10:11:38.789Z,0.77
2023-12-05T10:14:05.224Z,0.78
2023-12-05T10:16:32.794Z,0.84
2023-12-05T10:19:00.092Z,0.87
2023-12-05T10:21:26.898Z,0.81
2023-12-05T10:23:53.678Z,0.80
2023-12-05T10:26:20.101Z,0.82
2023-12-05T10:28:52.039Z,0.82
2023-12-05T10:31:21.340Z,0.74
2023-12-05T10:33:51.508Z,0.81
2023-12-05T10:36:18.417Z,0.84
2023-12-05T10:38:46.805Z,0.89
2023-12-05T10:41:22.869Z,0.85
2023-12-05T10:43:50.423Z,0.83
2023-12-05T10:46:17.594Z,0.79
2023-12-05T10:48:45.373Z,0.79
2023-12-05T10:51:11.840Z,0.78
2023-12-05T10:53:40.049Z,0.81
2023-12-05T10:56:13.598Z,0.78
2023-12-05T10:58:43.878Z,0.76
2023-12-05T11:01:11.481Z,0.75
2023-12-05T11:03:40.064Z,0.69
2023-12-05T11:06:10.180Z,0.74
2023-12-05T11:08:37.595Z,0.78
2023-12-05T11:11:05.512Z,0.76
2023-12-05T11:13:34.720Z,0.77
2023-12-05T11:16:10.115Z,0.77
2023-12-05T11:18:41.154Z,0.73
2023-12-05T11:21:26.008Z,0.75
2023-12-05T11:24:18.926Z,0.77
2023-12-05T11:27:13.296Z,0.74
2023-12-05T11:30:12.099Z,0.69
2023-12-05T11:33:08.018Z,0.75
2023-12-05T11:36:13.161Z,0.76
2023-12-05T11:38:40.387Z,0.70
2023-12-05T11:41:21.825Z,0.70
2023-12-05T11:44:12.791Z,0.74
2023-12-05T11:46:46.050Z,0.70
2023-12-05T11:49:12.558Z,0.73
2023-12-05T11:51:39.109Z,0.72
2023-12-05T11:54:08.520Z,0.67
2023-12-05T11:56:35.182Z,0.74
2023-12-05T11:59:19.773Z,0.71
2023-12-05T12:01:46.467Z,0.76
2023-12-05T12:04:23.641Z,0.78
2023-12-05T12:06:51.192Z,0.77
2023-12-05T12:09:17.755Z,0.79
2023-12-05T12:11:44.451Z,0.75
2023-12-05T12:14:20.707Z,0.75
2023-12-05T12:16:56.979Z,0.70
2023-12-05T12:19:23.642Z,0.70
2023-12-05T12:21:51.170Z,0.72
2023-12-05T12:24:23.474Z,0.64
2023-12-05T12:26:58.377Z,0.62
2023-12-05T12:29:25.995Z,0.58
2023-12-05T12:32:04.621Z,0.64
2023-12-05T12:34:31.686Z,0.59
2023-12-05T12:37:04.859Z,0.62
2023-12-05T12:39:36.059Z,0.67
2023-12-05T12:42:02.915Z,0.68
2023-12-05T12:44:30.787Z,0.66
2023-12-05T12:46:57.893Z,0.70
2023-12-05T12:49:26.847Z,0.69
2023-12-05T12:51:55.004Z,0.70
2023-12-05T12:54:22.052Z,0.73
2023-12-05T12:56:49.006Z,0.69
2023-12-05T12:59:16.604Z,0.64
2023-12-05T13:01:45.014Z,0.57
2023-12-05T13:04:13.436Z,0.58
2023-12-05T13:06:46.175Z,0.65
2023-12-05T13:09:15.988Z,0.61
2023-12-05T13:11:43.687Z,0.62
2023-12-05T13:14:15.216Z,0.58
2023-12-05T13:16:42.967Z,0.62
2023-12-05T13:19:31.713Z,0.59
2023-12-05T13:21:58.529Z,0.64
2023-12-05T13:24:25.149Z,0.63
2023-12-05T13:26:52.876Z,0.64
2023-12-05T13:29:20.196Z,0.60
2023-12-05T13:31:46.807Z,0.60
2023-12-05T13:34:13.382Z,0.64
2023-12-05T13:36:40.025Z,0.62
2023-12-05T13:39:11.045Z,0.64
2023-12-05T13:41:39.071Z,0.60
2023-12-05T13:44:05.567Z,0.58
2023-12-05T13:46:32.861Z,0.58
2023-12-05T13:49:05.347Z,0.52
2023-12-05T13:51:32.784Z,0.52
2023-12-05T13:54:01.006Z,0.53
2023-12-05T13:56:28.488Z,0.59
2023-12-05T13:58:56.042Z,0.56
2023-12-05T14:01:22.694Z,0.61
2023-12-05T14:03:49.506Z,0.56
2023-12-05T14:06:16.245Z,0.57
2023-12-05T14:08:42.895Z,0.64
2023-12-05T14:11:09.359Z,0.68
2023-12-05T14:13:35.929Z,0.65
2023-12-05T14:16:02.708Z,0.62
2023-12-05T14:18:29.190Z,0.69
2023-12-05T14:20:58.453Z,0.69
2023-12-05T14:23:26.945Z,0.73
2023-12-05T14:25:53.469Z,0.77
2023-12-05T14:28:19.941Z,0.68
2023-12-05T14:30:46.623Z,0.65
2023-12-05T14:33:13.260Z,0.62
2023-12-05T14:35:40.301Z,0.54
2023-12-05T14:38:06.739Z,0.61
2023-12-05T14:40:33.217Z,0.60
2023-12-05T14:43:00.773Z,0.56
2023-12-05T14:45:27.512Z,0.52
2023-12-05T14:47:54.048Z,0.52
2023-12-05T14:50:20.592Z,0.48
2023-12-05T14:52:46.993Z,0.44
2023-12-05T14:55:13.301Z,0.46
2023-12-05T14:57:39.816Z,0.41
2023-12-05T15:00:08.281Z,0.40
2023-12-05T15:02:40.402Z,0.44
2023-12-05T15:05:08.754Z,0.45
2023-12-05T15:07:35.346Z,0.42
2023-12-05T15:10:02.280Z,0.47
2023-12-05T15:12:28.779Z,0.39
2023-12-05T15:14:55.198Z,0.40
2023-12-05T15:17:22.135Z,0.48
2023-12-05T15:20:17.882Z,0.46
2023-12-05T15:22:35.025Z,0.36
2023-12-05T15:25:01.510Z,0.35
2023-12-05T15:27:28.393Z,0.32
2023-12-05T15:29:57.034Z,0.35
2023-12-05T15:32:27.656Z,0.30
2023-12-05T15:34:54.416Z,0.31
2023-12-05T15:37:21.611Z,0.27
2023-12-05T15:39:48.266Z,0.25
2023-12-05T15:42:14.755Z,0.31
2023-12-05T15:44:41.241Z,0.31
2023-12-05T15:47:07.655Z,0.25
2023-12-05T15:49:34.920Z,0.23
2023-12-05T15:52:01.435Z,0.30
2023-12-05T15:54:28.180Z,0.32
2023-12-05T15:56:55.042Z,0.36
2023-12-05T15:59:21.547Z,0.38
2023-12-05T16:01:48.198Z,0.38
2023-12-05T16:04:14.740Z,0.35
2023-12-05T16:06:45.834Z,0.27
2023-12-05T16:09:13.928Z,0.29
2023-12-05T16:11:41.334Z,0.34
2023-12-05T16:14:07.780Z,0.34
2023-12-05T16:16:34.264Z,0.38
2023-12-05T16:19:00.745Z,0.36
2023-12-05T16:21:27.281Z,0.31
2023-12-05T16:23:53.740Z,0.34
2023-12-05T16:26:20.137Z,0.36
2023-12-05T16:28:46.493Z,0.41
2023-12-05T16:31:12.975Z,0.34
2023-12-05T16:33:39.784Z,0.37
2023-12-05T16:36:09.243Z,0.30
2023-12-05T16:38:35.649Z,0.31
2023-12-05T16:41:01.949Z,0.34
2023-12-05T16:43:28.347Z,0.35
2023-12-05T16:45:54.760Z,0.40
2023-12-05T16:48:21.303Z,0.38
2023-12-05T16:50:47.764Z,0.35
2023-12-05T16:53:14.271Z,0.32
2023-12-05T16:55:40.939Z,0.36
2023-12-05T16:58:07.403Z,0.38
2023-12-05T17:00:34.011Z,0.34
2023-12-05T17:03:00.818Z,0.36
2023-12-05T17:05:27.263Z,0.34
2023-12-05T17:07:53.723Z,0.33
2023-12-05T17:10:20.276Z,0.31
2023-12-05T17:12:46.783Z,0.35
2023-12-05T17:15:13.298Z,0.34
2023-12-05T17:17:40.197Z,0.28
2023-12-05T17:20:08.518Z,0.33
2023-12-05T17:22:35.256Z,0.35
2023-12-05T17:25:01.909Z,0.35
2023-12-05T17:27:28.621Z,0.37
2023-12-05T17:29:56.492Z,0.35
2023-12-05T17:32:27.918Z,0.39
2023-12-05T17:34:56.089Z,0.39
2023-12-05T17:37:23.088Z,0.35
2023-12-05T17:39:50.024Z,0.29
2023-12-05T17:42:16.530Z,0.30
2023-12-05T17:44:43.146Z,0.35
2023-12-05T17:47:09.581Z,0.35
2023-12-05T17:49:35.928Z,0.34
2023-12-05T17:52:02.428Z,0.33
2023-12-05T17:54:28.976Z,0.33
2023-12-05T17:56:55.476Z,0.35
2023-12-05T17:59:24.303Z,0.38
2023-12-05T18:01:52.286Z,0.41
2023-12-05T18:04:19.061Z,0.41
2023-12-05T18:06:46.191Z,0.35
2023-12-05T18:09:16.432Z,0.34
2023-12-05T18:11:45.694Z,0.39
2023-12-05T18:14:13.456Z,0.39
2023-12-05T18:16:39.811Z,0.34
2023-12-05T18:19:08.108Z,0.41
2023-12-05T18:21:34.654Z,0.37
2023-12-05T18:24:01.839Z,0.36
2023-12-05T18:26:29.169Z,0.34
2023-12-05T18:28:56.616Z,0.35
2023-12-05T18:31:23.246Z,0.38
2023-12-05T18:33:51.515Z,0.39
2023-12-05T18:36:18.073Z,0.37
2023-12-05T18:38:44.601Z,0.36
2023-12-05T18:41:11.259Z,0.37
2023-12-05T18:43:39.059Z,0.37
2023-12-05T18:46:06.266Z,0.41
2023-12-05T18:48:33.114Z,0.43
2023-12-05T18:51:00.542Z,0.42
2023-12-05T18:53:30.907Z,0.33
2023-12-05T18:56:01.024Z,0.31
2023-12-05T18:58:27.957Z,0.36
2023-12-05T19:00:54.406Z,0.39
2023-12-05T19:03:20.970Z,0.46
2023-12-05T19:05:47.644Z,0.42
2023-12-05T19:08:14.694Z,0.38
2023-12-05T19:10:41.164Z,0.40
2023-12-05T19:13:08.540Z,0.47
2023-12-05T19:15:35.033Z,0.44
2023-12-05T19:18:02.372Z,0.49
2023-12-05T19:20:31.466Z,0.51
2023-12-05T19:22:58.664Z,0.50
2023-12-05T19:25:25.168Z,0.52
2023-12-05T19:27:53.782Z,0.52
2023-12-05T19:30:21.083Z,0.53
2023-12-05T19:32:47.561Z,0.53
2023-12-05T19:35:15.126Z,0.53
2023-12-05T19:37:41.927Z,0.54
2023-12-05T19:40:08.692Z,0.56
2023-12-05T19:42:35.610Z,0.62
2023-12-05T19:45:02.090Z,0.61
2023-12-05T19:47:28.577Z,0.60
2023-12-05T19:49:54.990Z,0.58
2023-12-05T19:52:21.522Z,0.56
2023-12-05T19:54:47.937Z,0.58
2023-12-05T19:57:14.342Z,0.62
2023-12-05T19:59:45.438Z,0.63
2023-12-05T20:02:13.318Z,0.65
2023-12-05T20:04:41.195Z,0.70
2023-12-05T20:07:08.293Z,0.71
2023-12-05T20:09:34.996Z,0.76
2023-12-05T20:12:01.749Z,0.81
2023-12-05T20:14:28.212Z,0.82
2023-12-05T20:16:54.646Z,0.82
2023-12-05T20:19:21.822Z,0.85
2023-12-05T20:21:48.972Z,0.85
2023-12-05T20:24:15.496Z,0.87
2023-12-05T20:26:42.020Z,0.89
2023-12-05T20:29:08.399Z,0.88
2023-12-05T20:31:35.024Z,0.91
2023-12-05T20:34:01.558Z,0.89
2023-12-05T20:36:27.997Z,0.93
2023-12-05T20:38:54.451Z,0.92
2023-12-05T20:41:20.955Z,0.92
2023-12-05T20:43:47.934Z,0.89
2023-12-05T20:46:15.539Z,0.84
2023-12-05T20:48:43.929Z,0.87
2023-12-05T20:51:10.389Z,0.86
2023-12-05T20:53:36.915Z,0.87
2023-12-05T20:56:03.573Z,0.90
2023-12-05T20:58:30.508Z,0.84
2023-12-05T21:00:57.071Z,0.83
2023-12-05T21:03:23.605Z,0.85
2023-12-05T21:05:50.005Z,0.86
2023-12-05T21:08:17.314Z,0.83
2023-12-05T21:10:44.060Z,0.84
2023-12-05T21:13:12.121Z,0.83
2023-12-05T21:15:38.781Z,0.85
2023-12-05T21:18:05.347Z,0.82
2023-12-05T21:20:31.754Z,0.83
2023-12-05T21:22:58.065Z,0.82
2023-12-05T21:25:24.564Z,0.83
2023-12-05T21:27:51.176Z,0.84
2023-12-05T21:30:18.322Z,0.81
2023-12-05T21:32:45.592Z,0.83
2023-12-05T21:35:15.208Z,0.80
2023-12-05T21:37:44.490Z,0.82
2023-12-05T21:40:13.194Z,0.85
2023-12-05T21:42:39.716Z,0.83
2023-12-05T21:45:06.815Z,0.81
2023-12-05T21:47:33.381Z,0.81
2023-12-05T21:49:59.924Z,0.81
2023-12-05T21:52:26.337Z,0.85
2023-12-05T21:57:19.326Z,0.87
2023-12-05T21:59:45.819Z,0.89
2023-12-05T22:02:14.501Z,0.87
2023-12-05T22:04:40.976Z,0.89
2023-12-05T22:07:07.494Z,0.89
2023-12-05T22:09:34.003Z,0.86
2023-12-05T22:12:00.501Z,0.89
2023-12-05T22:14:26.942Z,0.82
2023-12-05T22:16:53.685Z,0.88
2023-12-05T22:19:20.204Z,0.90
2023-12-05T22:21:46.780Z,0.91
2023-12-05T22:24:20.728Z,0.87
2023-12-05T22:26:55.764Z,0.88
2023-12-05T22:29:22.136Z,0.83
2023-12-05T22:31:48.607Z,0.84
2023-12-05T22:34:18.078Z,0.88
2023-12-05T22:36:45.225Z,0.87
2023-12-05T22:39:11.823Z,0.85
2023-12-05T22:41:42.478Z,0.86
2023-12-05T22:44:08.943Z,0.89
2023-12-05T22:46:35.307Z,0.87
2023-12-05T22:49:01.874Z,0.90
2023-12-05T22:51:28.480Z,0.90
2023-12-05T22:53:54.883Z,0.94
2023-12-05T22:56:21.190Z,0.95
2023-12-05T22:58:47.592Z,0.91
2023-12-05T23:01:14.201Z,0.93
2023-12-05T23:03:41.920Z,0.95
2023-12-05T23:06:08.662Z,0.97
2023-12-05T23:08:35.089Z,0.97
2023-12-05T23:11:01.464Z,0.91
2023-12-05T23:13:27.868Z,0.90
2023-12-05T23:15:56.103Z,0.91
2023-12-05T23:18:22.522Z,0.93
2023-12-05T23:20:48.832Z,0.95
2023-12-05T23:23:16.426Z,0.92
2023-12-05T23:25:42.880Z,0.95
2023-12-05T23:28:15.460Z,0.99
2023-12-05T23:30:45.402Z,1.03
2023-12-05T23:33:11.839Z,1.09
2023-12-05T23:35:38.313Z,1.04
2023-12-05T23:38:04.831Z,1.05
2023-12-05T23:40:31.281Z,1.04
2023-12-05T23:42:57.951Z,1.09
2023-12-05T23:45:24.316Z,1.10
2023-12-05T23:47:51.010Z,1.13
2023-12-05T23:50:17.552Z,1.16
2023-12-05T23:52:44.019Z,1.19
2023-12-05T23:55:10.870Z,1.23
2023-12-05T23:57:37.375Z,1.25
